sensor_id;sensor_type;location;lat;lon;timestamp;temperature;humidity
27633;DHT22;15046;50.930;13.334;2023-04-08T00:01:59;4.90;99.90
27633;DHT22;15046;50.930;13.334;2023-04-08T00:04:25;4.90;99.90
27633;DHT22;15046;50.930;13.334;2023-04-08T00:06:50;4.90;99.90
27633;DHT22;15046;50.930;13.334;2023-04-08T00:09:16;4.80;99.90
27633;DHT22;15046;50.930;13.334;2023-04-08T00:11:42;4.80;99.90
27633;DHT22;15046;50.930;13.334;2023-04-08T00:14:08;4.80;99.90
27633;DHT22;15046;50.930;13.334;2023-04-08T00:16:34;4.80;99.90
27633;DHT22;15046;50.930;13.334;2023-04-08T00:18:59;4.70;99.90
27633;DHT22;15046;50.930;13.334;2023-04-08T00:21:25;4.70;99.90
27633;DHT22;15046;50.930;13.334;2023-04-08T00:23:51;4.70;99.90
27633;DHT22;15046;50.930;13.334;2023-04-08T00:26:18;4.70;99.90
27633;DHT22;15046;50.930;13.334;2023-04-08T00:28:44;4.70;99.90
27633;DHT22;15046;50.930;13.334;2023-04-08T00:31:10;4.70;99.90
27633;DHT22;15046;50.930;13.334;2023-04-08T00:33:36;4.70;99.90
27633;DHT22;15046;50.930;13.334;2023-04-08T00:36:02;4.60;99.90
27633;DHT22;15046;50.930;13.334;2023-04-08T00:38:27;4.60;99.90
27633;DHT22;15046;50.930;13.334;2023-04-08T00:40:54;4.60;99.90
27633;DHT22;15046;50.930;13.334;2023-04-08T00:43:19;4.60;99.90
27633;DHT22;15046;50.930;13.334;2023-04-08T00:45:48;4.60;99.90
27633;DHT22;15046;50.930;13.334;2023-04-08T00:48:14;4.60;99.90
27633;DHT22;15046;50.930;13.334;2023-04-08T00:50:42;4.60;99.90
27633;DHT22;15046;50.930;13.334;2023-04-08T00:53:08;4.50;99.90
27633;DHT22;15046;50.930;13.334;2023-04-08T00:55:35;4.50;99.90
27633;DHT22;15046;50.930;13.334;2023-04-08T00:58:01;4.50;99.90
27633;DHT22;15046;50.930;13.334;2023-04-08T01:00:28;4.50;99.90
27633;DHT22;15046;50.930;13.334;2023-04-08T01:03:15;4.50;99.90
27633;DHT22;15046;50.930;13.334;2023-04-08T01:06:06;4.40;99.90
27633;DHT22;15046;50.930;13.334;2023-04-08T01:08:37;4.50;99.90
27633;DHT22;15046;50.930;13.334;2023-04-08T01:11:09;4.50;99.90
27633;DHT22;15046;50.930;13.334;2023-04-08T01:13:39;4.50;99.90
27633;DHT22;15046;50.930;13.334;2023-04-08T01:16:08;4.50;99.90
27633;DHT22;15046;50.930;13.334;2023-04-08T01:18:35;4.40;99.90
27633;DHT22;15046;50.930;13.334;2023-04-08T01:21:02;4.40;99.90
27633;DHT22;15046;50.930;13.334;2023-04-08T01:26:22;4.50;99.90
27633;DHT22;15046;50.930;13.334;2023-04-08T01:28:49;4.50;99.90
27633;DHT22;15046;50.930;13.334;2023-04-08T01:31:17;4.40;99.90
27633;DHT22;15046;50.930;13.334;2023-04-08T01:34:18;4.40;99.90
27633;DHT22;15046;50.930;13.334;2023-04-08T01:36:46;4.40;99.90
27633;DHT22;15046;50.930;13.334;2023-04-08T01:39:14;4.40;99.90
27633;DHT22;15046;50.930;13.334;2023-04-08T01:41:42;4.40;99.90
27633;DHT22;15046;50.930;13.334;2023-04-08T01:44:09;4.40;99.90
27633;DHT22;15046;50.930;13.334;2023-04-08T01:46:36;4.40;99.90
27633;DHT22;15046;50.930;13.334;2023-04-08T01:49:03;4.40;99.90
27633;DHT22;15046;50.930;13.334;2023-04-08T01:51:30;4.40;99.90
27633;DHT22;15046;50.930;13.334;2023-04-08T01:53:57;4.40;99.90
27633;DHT22;15046;50.930;13.334;2023-04-08T01:56:24;4.40;99.90
27633;DHT22;15046;50.930;13.334;2023-04-08T01:58:53;4.30;99.90
27633;DHT22;15046;50.930;13.334;2023-04-08T02:01:21;4.30;99.90
27633;DHT22;15046;50.930;13.334;2023-04-08T02:03:49;4.30;99.90
27633;DHT22;15046;50.930;13.334;2023-04-08T02:06:16;4.40;99.90
27633;DHT22;15046;50.930;13.334;2023-04-08T02:08:42;4.30;99.90
27633;DHT22;15046;50.930;13.334;2023-04-08T02:11:08;4.30;99.90
27633;DHT22;15046;50.930;13.334;2023-04-08T02:13:35;4.30;99.90
27633;DHT22;15046;50.930;13.334;2023-04-08T02:16:11;4.30;99.90
27633;DHT22;15046;50.930;13.334;2023-04-08T02:18:41;4.30;99.90
27633;DHT22;15046;50.930;13.334;2023-04-08T02:21:14;4.40;99.90
27633;DHT22;15046;50.930;13.334;2023-04-08T02:23:41;4.30;99.90
27633;DHT22;15046;50.930;13.334;2023-04-08T02:26:15;4.30;99.90
27633;DHT22;15046;50.930;13.334;2023-04-08T02:28:41;4.40;99.90
27633;DHT22;15046;50.930;13.334;2023-04-08T02:31:10;4.30;99.90
27633;DHT22;15046;50.930;13.334;2023-04-08T02:33:39;4.40;99.90
27633;DHT22;15046;50.930;13.334;2023-04-08T02:36:06;4.40;99.90
27633;DHT22;15046;50.930;13.334;2023-04-08T02:38:32;4.40;99.90
27633;DHT22;15046;50.930;13.334;2023-04-08T02:40:58;4.40;99.90
27633;DHT22;15046;50.930;13.334;2023-04-08T02:43:24;4.40;99.90
27633;DHT22;15046;50.930;13.334;2023-04-08T02:46:00;4.40;99.90
27633;DHT22;15046;50.930;13.334;2023-04-08T02:48:29;4.40;99.90
27633;DHT22;15046;50.930;13.334;2023-04-08T02:50:55;4.40;99.90
27633;DHT22;15046;50.930;13.334;2023-04-08T02:53:22;4.40;99.90
27633;DHT22;15046;50.930;13.334;2023-04-08T02:55:51;4.30;99.90
27633;DHT22;15046;50.930;13.334;2023-04-08T02:58:17;4.30;99.90
27633;DHT22;15046;50.930;13.334;2023-04-08T03:00:43;4.30;99.90
27633;DHT22;15046;50.930;13.334;2023-04-08T03:03:09;4.30;99.90
27633;DHT22;15046;50.930;13.334;2023-04-08T03:05:35;4.40;99.90
27633;DHT22;15046;50.930;13.334;2023-04-08T03:08:01;4.30;99.90
27633;DHT22;15046;50.930;13.334;2023-04-08T03:10:27;4.40;99.90
27633;DHT22;15046;50.930;13.334;2023-04-08T03:12:53;4.30;99.90
27633;DHT22;15046;50.930;13.334;2023-04-08T03:15:19;4.30;99.90
27633;DHT22;15046;50.930;13.334;2023-04-08T03:17:45;4.30;99.90
27633;DHT22;15046;50.930;13.334;2023-04-08T03:20:11;4.40;99.90
27633;DHT22;15046;50.930;13.334;2023-04-08T03:22:37;4.40;99.90
27633;DHT22;15046;50.930;13.334;2023-04-08T03:25:02;4.40;99.90
27633;DHT22;15046;50.930;13.334;2023-04-08T03:27:28;4.40;99.90
27633;DHT22;15046;50.930;13.334;2023-04-08T03:29:54;4.30;99.90
27633;DHT22;15046;50.930;13.334;2023-04-08T03:32:22;4.40;99.90
27633;DHT22;15046;50.930;13.334;2023-04-08T03:34:48;4.40;99.90
27633;DHT22;15046;50.930;13.334;2023-04-08T03:37:19;4.30;99.90
27633;DHT22;15046;50.930;13.334;2023-04-08T03:39:45;4.40;99.90
27633;DHT22;15046;50.930;13.334;2023-04-08T03:42:11;4.40;99.90
27633;DHT22;15046;50.930;13.334;2023-04-08T03:44:37;4.40;99.90
27633;DHT22;15046;50.930;13.334;2023-04-08T03:47:02;4.40;99.90
27633;DHT22;15046;50.930;13.334;2023-04-08T03:49:28;4.40;99.90
27633;DHT22;15046;50.930;13.334;2023-04-08T03:51:54;4.40;99.90
27633;DHT22;15046;50.930;13.334;2023-04-08T03:54:20;4.30;99.90
27633;DHT22;15046;50.930;13.334;2023-04-08T03:56:47;4.40;99.90
27633;DHT22;15046;50.930;13.334;2023-04-08T03:59:13;4.30;99.90
27633;DHT22;15046;50.930;13.334;2023-04-08T04:01:39;4.40;99.90
27633;DHT22;15046;50.930;13.334;2023-04-08T04:04:05;4.30;99.90
27633;DHT22;15046;50.930;13.334;2023-04-08T04:06:31;4.30;99.90
27633;DHT22;15046;50.930;13.334;2023-04-08T04:08:57;4.40;99.90
27633;DHT22;15046;50.930;13.334;2023-04-08T04:11:22;4.40;99.90
27633;DHT22;15046;50.930;13.334;2023-04-08T04:13:48;4.40;99.90
27633;DHT22;15046;50.930;13.334;2023-04-08T04:16:14;4.30;99.90
27633;DHT22;15046;50.930;13.334;2023-04-08T04:18:40;4.30;99.90
27633;DHT22;15046;50.930;13.334;2023-04-08T04:21:06;4.30;99.90
27633;DHT22;15046;50.930;13.334;2023-04-08T04:23:32;4.30;99.90
27633;DHT22;15046;50.930;13.334;2023-04-08T04:25:58;4.30;99.90
27633;DHT22;15046;50.930;13.334;2023-04-08T04:28:24;4.30;99.90
27633;DHT22;15046;50.930;13.334;2023-04-08T04:30:49;4.40;99.90
27633;DHT22;15046;50.930;13.334;2023-04-08T04:33:15;4.40;99.90
27633;DHT22;15046;50.930;13.334;2023-04-08T04:35:41;4.30;99.90
27633;DHT22;15046;50.930;13.334;2023-04-08T04:38:07;4.40;99.90
27633;DHT22;15046;50.930;13.334;2023-04-08T04:40:39;4.40;99.90
27633;DHT22;15046;50.930;13.334;2023-04-08T04:43:05;4.30;99.90
27633;DHT22;15046;50.930;13.334;2023-04-08T04:45:31;4.40;99.90
27633;DHT22;15046;50.930;13.334;2023-04-08T04:47:57;4.30;99.90
27633;DHT22;15046;50.930;13.334;2023-04-08T04:50:23;4.30;99.90
27633;DHT22;15046;50.930;13.334;2023-04-08T04:52:48;4.30;99.90
27633;DHT22;15046;50.930;13.334;2023-04-08T04:55:14;4.40;99.90
27633;DHT22;15046;50.930;13.334;2023-04-08T04:57:41;4.40;99.90
27633;DHT22;15046;50.930;13.334;2023-04-08T05:00:07;4.30;99.90
27633;DHT22;15046;50.930;13.334;2023-04-08T05:02:33;4.30;99.90
27633;DHT22;15046;50.930;13.334;2023-04-08T05:04:59;4.30;99.90
27633;DHT22;15046;50.930;13.334;2023-04-08T05:07:25;4.30;99.90
27633;DHT22;15046;50.930;13.334;2023-04-08T05:09:50;4.30;99.90
27633;DHT22;15046;50.930;13.334;2023-04-08T05:12:16;4.30;99.90
27633;DHT22;15046;50.930;13.334;2023-04-08T05:14:42;4.30;99.90
27633;DHT22;15046;50.930;13.334;2023-04-08T05:17:08;4.40;99.90
27633;DHT22;15046;50.930;13.334;2023-04-08T05:19:34;4.30;99.90
27633;DHT22;15046;50.930;13.334;2023-04-08T05:21:59;4.30;99.90
27633;DHT22;15046;50.930;13.334;2023-04-08T05:24:25;4.30;99.90
27633;DHT22;15046;50.930;13.334;2023-04-08T05:26:51;4.30;99.90
27633;DHT22;15046;50.930;13.334;2023-04-08T05:29:18;4.30;99.90
27633;DHT22;15046;50.930;13.334;2023-04-08T05:31:44;4.40;99.90
27633;DHT22;15046;50.930;13.334;2023-04-08T05:34:10;4.40;99.90
27633;DHT22;15046;50.930;13.334;2023-04-08T05:36:36;4.30;99.90
27633;DHT22;15046;50.930;13.334;2023-04-08T05:39:02;4.40;99.90
27633;DHT22;15046;50.930;13.334;2023-04-08T05:41:28;4.40;99.90
27633;DHT22;15046;50.930;13.334;2023-04-08T05:43:54;4.40;99.90
27633;DHT22;15046;50.930;13.334;2023-04-08T05:46:20;4.40;99.90
27633;DHT22;15046;50.930;13.334;2023-04-08T05:48:45;4.40;99.90
27633;DHT22;15046;50.930;13.334;2023-04-08T05:51:14;4.40;99.90
27633;DHT22;15046;50.930;13.334;2023-04-08T05:53:41;4.40;99.90
27633;DHT22;15046;50.930;13.334;2023-04-08T05:56:07;4.40;99.90
27633;DHT22;15046;50.930;13.334;2023-04-08T05:58:33;4.40;99.90
27633;DHT22;15046;50.930;13.334;2023-04-08T06:00:58;4.40;99.90
27633;DHT22;15046;50.930;13.334;2023-04-08T06:03:25;4.40;99.90
27633;DHT22;15046;50.930;13.334;2023-04-08T06:05:51;4.40;99.90
27633;DHT22;15046;50.930;13.334;2023-04-08T06:08:17;4.50;99.90
27633;DHT22;15046;50.930;13.334;2023-04-08T06:10:50;4.50;99.90
27633;DHT22;15046;50.930;13.334;2023-04-08T06:13:16;4.50;99.90
27633;DHT22;15046;50.930;13.334;2023-04-08T06:15:42;4.50;99.90
27633;DHT22;15046;50.930;13.334;2023-04-08T06:18:07;4.60;99.90
27633;DHT22;15046;50.930;13.334;2023-04-08T06:20:34;4.60;99.90
27633;DHT22;15046;50.930;13.334;2023-04-08T06:23:00;4.60;99.90
27633;DHT22;15046;50.930;13.334;2023-04-08T06:25:26;4.60;99.90
27633;DHT22;15046;50.930;13.334;2023-04-08T06:27:52;4.60;99.90
27633;DHT22;15046;50.930;13.334;2023-04-08T06:30:18;4.60;99.90
27633;DHT22;15046;50.930;13.334;2023-04-08T06:32:44;4.60;99.90
27633;DHT22;15046;50.930;13.334;2023-04-08T06:35:12;4.60;99.90
27633;DHT22;15046;50.930;13.334;2023-04-08T06:37:38;4.60;99.90
27633;DHT22;15046;50.930;13.334;2023-04-08T06:40:04;4.60;99.90
27633;DHT22;15046;50.930;13.334;2023-04-08T06:42:30;4.60;99.90
27633;DHT22;15046;50.930;13.334;2023-04-08T06:44:56;4.70;99.90
27633;DHT22;15046;50.930;13.334;2023-04-08T06:47:23;4.70;99.90
27633;DHT22;15046;50.930;13.334;2023-04-08T06:49:48;4.70;99.90
27633;DHT22;15046;50.930;13.334;2023-04-08T06:52:14;4.70;99.90
27633;DHT22;15046;50.930;13.334;2023-04-08T06:54:41;4.70;99.90
27633;DHT22;15046;50.930;13.334;2023-04-08T06:57:08;4.80;99.90
27633;DHT22;15046;50.930;13.334;2023-04-08T06:59:34;4.80;99.90
27633;DHT22;15046;50.930;13.334;2023-04-08T07:01:59;4.80;99.90
27633;DHT22;15046;50.930;13.334;2023-04-08T07:04:25;4.80;99.90
27633;DHT22;15046;50.930;13.334;2023-04-08T07:06:51;4.80;99.90
27633;DHT22;15046;50.930;13.334;2023-04-08T07:09:17;4.80;99.90
27633;DHT22;15046;50.930;13.334;2023-04-08T07:11:43;4.80;99.90
27633;DHT22;15046;50.930;13.334;2023-04-08T07:14:09;4.80;99.90
27633;DHT22;15046;50.930;13.334;2023-04-08T07:16:35;4.90;99.90
27633;DHT22;15046;50.930;13.334;2023-04-08T07:19:00;4.90;99.90
27633;DHT22;15046;50.930;13.334;2023-04-08T07:21:26;4.90;99.90
27633;DHT22;15046;50.930;13.334;2023-04-08T07:23:52;4.90;99.90
27633;DHT22;15046;50.930;13.334;2023-04-08T07:26:18;4.90;99.90
27633;DHT22;15046;50.930;13.334;2023-04-08T07:28:44;4.90;99.90
27633;DHT22;15046;50.930;13.334;2023-04-08T07:31:12;4.90;99.90
27633;DHT22;15046;50.930;13.334;2023-04-08T07:33:38;5.00;99.90
27633;DHT22;15046;50.930;13.334;2023-04-08T07:36:04;5.00;99.90
27633;DHT22;15046;50.930;13.334;2023-04-08T07:38:31;5.00;99.90
27633;DHT22;15046;50.930;13.334;2023-04-08T07:40:57;5.00;99.90
27633;DHT22;15046;50.930;13.334;2023-04-08T07:43:22;5.10;99.90
27633;DHT22;15046;50.930;13.334;2023-04-08T07:45:48;5.10;99.90
27633;DHT22;15046;50.930;13.334;2023-04-08T07:48:14;5.10;99.90
27633;DHT22;15046;50.930;13.334;2023-04-08T07:50:40;5.20;99.90
27633;DHT22;15046;50.930;13.334;2023-04-08T07:53:06;5.20;99.90
27633;DHT22;15046;50.930;13.334;2023-04-08T07:55:33;5.30;99.90
27633;DHT22;15046;50.930;13.334;2023-04-08T07:57:59;5.30;99.90
27633;DHT22;15046;50.930;13.334;2023-04-08T08:00:26;5.30;99.90
27633;DHT22;15046;50.930;13.334;2023-04-08T08:02:52;5.30;99.90
27633;DHT22;15046;50.930;13.334;2023-04-08T08:05:18;5.30;99.90
27633;DHT22;15046;50.930;13.334;2023-04-08T08:07:43;5.30;99.90
27633;DHT22;15046;50.930;13.334;2023-04-08T08:10:09;5.30;99.90
27633;DHT22;15046;50.930;13.334;2023-04-08T08:12:36;5.30;99.90
27633;DHT22;15046;50.930;13.334;2023-04-08T08:15:02;5.30;99.90
27633;DHT22;15046;50.930;13.334;2023-04-08T08:17:28;5.30;99.90
27633;DHT22;15046;50.930;13.334;2023-04-08T08:19:57;5.30;99.90
27633;DHT22;15046;50.930;13.334;2023-04-08T08:22:22;5.30;99.90
27633;DHT22;15046;50.930;13.334;2023-04-08T08:24:48;5.30;99.90
27633;DHT22;15046;50.930;13.334;2023-04-08T08:27:14;5.40;99.90
27633;DHT22;15046;50.930;13.334;2023-04-08T08:29:40;5.50;99.90
27633;DHT22;15046;50.930;13.334;2023-04-08T08:32:06;5.50;99.90
27633;DHT22;15046;50.930;13.334;2023-04-08T08:34:33;5.70;99.90
27633;DHT22;15046;50.930;13.334;2023-04-08T08:36:59;5.80;99.90
27633;DHT22;15046;50.930;13.334;2023-04-08T08:39:25;5.90;99.90
27633;DHT22;15046;50.930;13.334;2023-04-08T08:41:51;6.10;99.90
27633;DHT22;15046;50.930;13.334;2023-04-08T08:44:17;6.30;99.90
27633;DHT22;15046;50.930;13.334;2023-04-08T08:46:43;6.40;99.90
27633;DHT22;15046;50.930;13.334;2023-04-08T08:49:10;6.60;99.90
27633;DHT22;15046;50.930;13.334;2023-04-08T08:51:37;6.70;99.90
27633;DHT22;15046;50.930;13.334;2023-04-08T08:54:04;6.80;99.90
27633;DHT22;15046;50.930;13.334;2023-04-08T08:56:32;6.80;99.90
27633;DHT22;15046;50.930;13.334;2023-04-08T08:58:59;6.80;99.90
27633;DHT22;15046;50.930;13.334;2023-04-08T09:01:36;6.70;99.90
27633;DHT22;15046;50.930;13.334;2023-04-08T09:04:21;6.70;99.90
27633;DHT22;15046;50.930;13.334;2023-04-08T09:07:08;6.60;99.90
27633;DHT22;15046;50.930;13.334;2023-04-08T09:09:50;6.60;99.90
27633;DHT22;15046;50.930;13.334;2023-04-08T09:12:17;6.50;99.90
27633;DHT22;15046;50.930;13.334;2023-04-08T09:14:44;6.50;99.90
27633;DHT22;15046;50.930;13.334;2023-04-08T09:17:10;6.50;99.90
27633;DHT22;15046;50.930;13.334;2023-04-08T09:19:36;6.40;99.90
27633;DHT22;15046;50.930;13.334;2023-04-08T09:22:12;6.40;99.90
27633;DHT22;15046;50.930;13.334;2023-04-08T09:24:37;6.50;99.90
27633;DHT22;15046;50.930;13.334;2023-04-08T09:27:04;6.50;99.90
27633;DHT22;15046;50.930;13.334;2023-04-08T09:29:30;6.50;99.90
27633;DHT22;15046;50.930;13.334;2023-04-08T09:31:57;6.40;99.90
27633;DHT22;15046;50.930;13.334;2023-04-08T09:34:24;6.40;99.90
27633;DHT22;15046;50.930;13.334;2023-04-08T09:36:52;6.40;99.90
27633;DHT22;15046;50.930;13.334;2023-04-08T09:39:18;6.30;99.90
27633;DHT22;15046;50.930;13.334;2023-04-08T09:41:47;6.30;99.90
27633;DHT22;15046;50.930;13.334;2023-04-08T09:44:15;6.20;99.90
27633;DHT22;15046;50.930;13.334;2023-04-08T09:49:42;6.60;99.90
27633;DHT22;15046;50.930;13.334;2023-04-08T09:52:14;6.90;99.90
27633;DHT22;15046;50.930;13.334;2023-04-08T09:57:24;7.30;99.90
27633;DHT22;15046;50.930;13.334;2023-04-08T10:00:02;7.30;99.90
27633;DHT22;15046;50.930;13.334;2023-04-08T10:02:44;7.20;99.90
27633;DHT22;15046;50.930;13.334;2023-04-08T10:05:12;7.10;99.90
27633;DHT22;15046;50.930;13.334;2023-04-08T10:07:40;6.90;99.90
27633;DHT22;15046;50.930;13.334;2023-04-08T10:10:07;6.80;99.90
27633;DHT22;15046;50.930;13.334;2023-04-08T10:12:35;6.80;99.90
27633;DHT22;15046;50.930;13.334;2023-04-08T10:17:46;7.20;99.90
27633;DHT22;15046;50.930;13.334;2023-04-08T10:20:50;7.40;99.90
27633;DHT22;15046;50.930;13.334;2023-04-08T10:23:17;7.70;99.90
27633;DHT22;15046;50.930;13.334;2023-04-08T10:25:51;7.80;99.90
27633;DHT22;15046;50.930;13.334;2023-04-08T10:30:51;8.00;99.90
27633;DHT22;15046;50.930;13.334;2023-04-08T10:36:09;8.00;99.90
27633;DHT22;15046;50.930;13.334;2023-04-08T10:38:40;7.90;99.90
27633;DHT22;15046;50.930;13.334;2023-04-08T10:41:10;7.80;99.90
27633;DHT22;15046;50.930;13.334;2023-04-08T10:43:38;7.90;99.90
27633;DHT22;15046;50.930;13.334;2023-04-08T10:46:04;7.90;99.90
27633;DHT22;15046;50.930;13.334;2023-04-08T10:48:30;8.10;99.90
27633;DHT22;15046;50.930;13.334;2023-04-08T10:50:59;8.30;99.90
27633;DHT22;15046;50.930;13.334;2023-04-08T10:53:26;8.50;99.90
27633;DHT22;15046;50.930;13.334;2023-04-08T10:55:53;8.70;99.90
27633;DHT22;15046;50.930;13.334;2023-04-08T10:58:19;8.80;99.90
27633;DHT22;15046;50.930;13.334;2023-04-08T11:00:45;8.90;99.90
27633;DHT22;15046;50.930;13.334;2023-04-08T11:03:11;8.80;99.90
27633;DHT22;15046;50.930;13.334;2023-04-08T11:05:38;8.80;99.90
27633;DHT22;15046;50.930;13.334;2023-04-08T11:08:06;8.90;99.90
27633;DHT22;15046;50.930;13.334;2023-04-08T11:10:36;9.10;99.90
27633;DHT22;15046;50.930;13.334;2023-04-08T11:13:08;9.20;99.90
27633;DHT22;15046;50.930;13.334;2023-04-08T11:15:35;9.30;99.90
27633;DHT22;15046;50.930;13.334;2023-04-08T11:18:04;9.20;99.90
27633;DHT22;15046;50.930;13.334;2023-04-08T11:20:32;9.10;99.90
27633;DHT22;15046;50.930;13.334;2023-04-08T11:23:02;8.90;99.90
27633;DHT22;15046;50.930;13.334;2023-04-08T11:25:28;8.80;99.90
27633;DHT22;15046;50.930;13.334;2023-04-08T11:27:55;8.60;99.90
27633;DHT22;15046;50.930;13.334;2023-04-08T11:30:22;8.60;99.90
27633;DHT22;15046;50.930;13.334;2023-04-08T11:32:49;8.60;99.90
27633;DHT22;15046;50.930;13.334;2023-04-08T11:35:15;8.60;99.90
27633;DHT22;15046;50.930;13.334;2023-04-08T11:37:42;8.80;99.90
27633;DHT22;15046;50.930;13.334;2023-04-08T11:40:10;8.90;99.90
27633;DHT22;15046;50.930;13.334;2023-04-08T11:42:37;9.00;99.90
27633;DHT22;15046;50.930;13.334;2023-04-08T11:45:11;9.10;99.90
27633;DHT22;15046;50.930;13.334;2023-04-08T11:47:38;9.20;99.90
27633;DHT22;15046;50.930;13.334;2023-04-08T11:50:06;9.20;99.90
27633;DHT22;15046;50.930;13.334;2023-04-08T11:53:01;9.10;99.90
27633;DHT22;15046;50.930;13.334;2023-04-08T11:55:31;9.10;99.90
27633;DHT22;15046;50.930;13.334;2023-04-08T11:58:04;8.90;99.90
27633;DHT22;15046;50.930;13.334;2023-04-08T12:00:30;8.90;99.90
27633;DHT22;15046;50.930;13.334;2023-04-08T12:02:57;8.70;99.90
27633;DHT22;15046;50.930;13.334;2023-04-08T12:05:23;8.60;99.90
27633;DHT22;15046;50.930;13.334;2023-04-08T12:07:49;8.50;99.90
27633;DHT22;15046;50.930;13.334;2023-04-08T12:10:15;8.60;99.90
27633;DHT22;15046;50.930;13.334;2023-04-08T12:12:41;8.60;99.90
27633;DHT22;15046;50.930;13.334;2023-04-08T12:15:07;8.60;99.90
27633;DHT22;15046;50.930;13.334;2023-04-08T12:17:34;8.70;99.90
27633;DHT22;15046;50.930;13.334;2023-04-08T12:19:59;8.70;99.90
27633;DHT22;15046;50.930;13.334;2023-04-08T12:22:26;8.80;99.90
27633;DHT22;15046;50.930;13.334;2023-04-08T12:24:52;8.80;99.90
27633;DHT22;15046;50.930;13.334;2023-04-08T12:27:18;8.80;99.90
27633;DHT22;15046;50.930;13.334;2023-04-08T12:29:44;8.90;99.90
27633;DHT22;15046;50.930;13.334;2023-04-08T12:32:10;9.10;99.90
27633;DHT22;15046;50.930;13.334;2023-04-08T12:34:37;9.20;99.90
27633;DHT22;15046;50.930;13.334;2023-04-08T12:37:02;9.40;99.90
27633;DHT22;15046;50.930;13.334;2023-04-08T12:39:28;9.60;99.90
27633;DHT22;15046;50.930;13.334;2023-04-08T12:41:54;9.60;99.90
27633;DHT22;15046;50.930;13.334;2023-04-08T12:44:21;9.70;99.90
27633;DHT22;15046;50.930;13.334;2023-04-08T12:46:47;9.70;99.90
27633;DHT22;15046;50.930;13.334;2023-04-08T12:49:13;9.60;99.90
27633;DHT22;15046;50.930;13.334;2023-04-08T12:51:39;9.50;99.90
27633;DHT22;15046;50.930;13.334;2023-04-08T12:54:05;9.40;99.90
27633;DHT22;15046;50.930;13.334;2023-04-08T12:56:31;9.40;99.90
27633;DHT22;15046;50.930;13.334;2023-04-08T12:58:58;9.30;99.90
27633;DHT22;15046;50.930;13.334;2023-04-08T13:01:24;9.30;99.90
27633;DHT22;15046;50.930;13.334;2023-04-08T13:03:50;9.20;99.90
27633;DHT22;15046;50.930;13.334;2023-04-08T13:06:15;9.20;99.90
27633;DHT22;15046;50.930;13.334;2023-04-08T13:08:41;9.10;99.90
27633;DHT22;15046;50.930;13.334;2023-04-08T13:11:08;9.10;99.90
27633;DHT22;15046;50.930;13.334;2023-04-08T13:13:34;9.10;99.90
27633;DHT22;15046;50.930;13.334;2023-04-08T13:16:00;9.10;99.90
27633;DHT22;15046;50.930;13.334;2023-04-08T13:18:26;9.10;99.90
27633;DHT22;15046;50.930;13.334;2023-04-08T13:20:51;9.00;99.90
27633;DHT22;15046;50.930;13.334;2023-04-08T13:23:19;8.80;99.90
27633;DHT22;15046;50.930;13.334;2023-04-08T13:25:46;8.70;99.90
27633;DHT22;15046;50.930;13.334;2023-04-08T13:28:12;8.60;99.90
27633;DHT22;15046;50.930;13.334;2023-04-08T13:30:37;8.50;99.90
27633;DHT22;15046;50.930;13.334;2023-04-08T13:33:07;8.50;99.90
27633;DHT22;15046;50.930;13.334;2023-04-08T13:35:33;8.60;99.90
27633;DHT22;15046;50.930;13.334;2023-04-08T13:37:59;8.70;99.90
27633;DHT22;15046;50.930;13.334;2023-04-08T13:40:25;8.70;99.90
27633;DHT22;15046;50.930;13.334;2023-04-08T13:42:52;8.80;99.90
27633;DHT22;15046;50.930;13.334;2023-04-08T13:45:18;8.90;99.90
27633;DHT22;15046;50.930;13.334;2023-04-08T13:47:44;9.00;99.90
27633;DHT22;15046;50.930;13.334;2023-04-08T13:50:10;9.20;99.90
27633;DHT22;15046;50.930;13.334;2023-04-08T13:52:36;9.30;99.90
27633;DHT22;15046;50.930;13.334;2023-04-08T13:55:02;9.40;99.90
27633;DHT22;15046;50.930;13.334;2023-04-08T13:57:28;9.60;99.90
27633;DHT22;15046;50.930;13.334;2023-04-08T13:59:54;9.70;99.90
27633;DHT22;15046;50.930;13.334;2023-04-08T14:02:20;9.80;99.90
27633;DHT22;15046;50.930;13.334;2023-04-08T14:04:46;9.70;99.90
27633;DHT22;15046;50.930;13.334;2023-04-08T14:07:12;9.70;99.90
27633;DHT22;15046;50.930;13.334;2023-04-08T14:09:38;9.60;99.90
27633;DHT22;15046;50.930;13.334;2023-04-08T14:12:05;9.50;99.90
27633;DHT22;15046;50.930;13.334;2023-04-08T14:14:31;9.60;99.90
27633;DHT22;15046;50.930;13.334;2023-04-08T14:16:57;9.60;99.90
27633;DHT22;15046;50.930;13.334;2023-04-08T14:19:22;9.60;99.90
27633;DHT22;15046;50.930;13.334;2023-04-08T14:21:49;9.60;99.90
27633;DHT22;15046;50.930;13.334;2023-04-08T14:24:15;9.60;99.90
27633;DHT22;15046;50.930;13.334;2023-04-08T14:26:41;9.50;99.90
27633;DHT22;15046;50.930;13.334;2023-04-08T14:29:07;9.40;99.90
27633;DHT22;15046;50.930;13.334;2023-04-08T14:31:34;9.30;99.90
27633;DHT22;15046;50.930;13.334;2023-04-08T14:34:01;9.10;99.90
27633;DHT22;15046;50.930;13.334;2023-04-08T14:36:27;9.10;99.90
27633;DHT22;15046;50.930;13.334;2023-04-08T14:38:54;8.90;99.90
27633;DHT22;15046;50.930;13.334;2023-04-08T14:41:20;8.80;99.90
27633;DHT22;15046;50.930;13.334;2023-04-08T14:43:47;8.70;99.90
27633;DHT22;15046;50.930;13.334;2023-04-08T14:46:13;8.60;99.90
27633;DHT22;15046;50.930;13.334;2023-04-08T14:48:40;8.50;99.90
27633;DHT22;15046;50.930;13.334;2023-04-08T14:51:06;8.50;99.90
27633;DHT22;15046;50.930;13.334;2023-04-08T14:53:32;8.50;99.90
27633;DHT22;15046;50.930;13.334;2023-04-08T14:55:59;8.40;99.90
27633;DHT22;15046;50.930;13.334;2023-04-08T14:58:24;8.50;99.90
27633;DHT22;15046;50.930;13.334;2023-04-08T15:00:51;8.50;99.90
27633;DHT22;15046;50.930;13.334;2023-04-08T15:03:17;8.60;99.90
27633;DHT22;15046;50.930;13.334;2023-04-08T15:05:43;8.70;99.90
27633;DHT22;15046;50.930;13.334;2023-04-08T15:08:10;8.80;99.90
27633;DHT22;15046;50.930;13.334;2023-04-08T15:10:36;8.90;99.90
27633;DHT22;15046;50.930;13.334;2023-04-08T15:13:02;8.90;99.90
27633;DHT22;15046;50.930;13.334;2023-04-08T15:15:28;9.00;99.90
27633;DHT22;15046;50.930;13.334;2023-04-08T15:17:54;9.00;99.90
27633;DHT22;15046;50.930;13.334;2023-04-08T15:20:23;9.00;99.90
27633;DHT22;15046;50.930;13.334;2023-04-08T15:22:49;9.00;99.90
27633;DHT22;15046;50.930;13.334;2023-04-08T15:25:15;9.00;99.90
27633;DHT22;15046;50.930;13.334;2023-04-08T15:27:41;9.10;99.90
27633;DHT22;15046;50.930;13.334;2023-04-08T15:30:07;9.00;99.90
27633;DHT22;15046;50.930;13.334;2023-04-08T15:32:33;9.00;99.90
27633;DHT22;15046;50.930;13.334;2023-04-08T15:34:59;8.90;99.90
27633;DHT22;15046;50.930;13.334;2023-04-08T15:37:25;9.00;99.90
27633;DHT22;15046;50.930;13.334;2023-04-08T15:39:51;9.00;99.90
27633;DHT22;15046;50.930;13.334;2023-04-08T15:42:21;8.90;99.90
27633;DHT22;15046;50.930;13.334;2023-04-08T15:44:47;8.90;99.90
27633;DHT22;15046;50.930;13.334;2023-04-08T15:47:13;8.90;99.90